Time;durP1;ratioP1;P1;durP2;ratioP2;P2;SDS_P1;SDS_P2;PMS_P1;PMS_P2;Temp;Humidity;BMP_temperature;BMP_pressure;BME280_temperature;BME280_humidity;BME280_pressure;Samples;Min_cycle;Max_cycle;Signal;HPM_P1;HPM_P2
2023/07/22 00:00:49;;;;;;;4.55;2.53;;;15.90;99.90;;;;;;5032739;28;20206;-60
2023/07/22 00:03:15;;;;;;;2.73;2.00;;;15.90;99.90;;;;;;5032838;28;20212;-60
2023/07/22 00:05:43;;;;;;;3.22;2.10;;;15.90;99.90;;;;;;5032825;28;20230;-61
2023/07/22 00:08:10;;;;;;;2.47;1.90;;;15.80;99.90;;;;;;5032609;28;20310;-60
2023/07/22 00:10:41;;;;;;;2.92;1.90;;;15.80;99.90;;;;;;5032683;28;20252;-60
2023/07/22 00:13:08;;;;;;;2.40;2.03;;;15.60;99.90;;;;;;5032704;28;20202;-60
2023/07/22 00:15:35;;;;;;;3.17;1.93;;;15.70;99.90;;;;;;5032229;28;20241;-60
2023/07/22 00:18:02;;;;;;;2.60;1.90;;;15.50;99.90;;;;;;5031785;28;20241;-59
2023/07/22 00:20:29;;;;;;;5.82;2.10;;;15.40;99.90;;;;;;5032491;28;20241;-60
2023/07/22 00:22:55;;;;;;;5.00;2.30;;;15.40;99.90;;;;;;5032642;28;20244;-60
2023/07/22 00:25:23;;;;;;;3.90;1.87;;;15.40;99.90;;;;;;5073013;22;20252;-63
2023/07/22 00:27:51;;;;;;;3.37;1.87;;;15.40;99.90;;;;;;5066188;28;20270;-64
2023/07/22 00:30:18;;;;;;;4.32;2.00;;;15.30;99.90;;;;;;5074500;28;20212;-64
2023/07/22 00:32:45;;;;;;;3.03;2.33;;;15.30;99.90;;;;;;5074674;28;20580;-64
2023/07/22 00:35:11;;;;;;;5.27;2.03;;;15.30;99.90;;;;;;5076692;28;20692;-63
2023/07/22 00:37:38;;;;;;;3.40;2.07;;;15.30;99.90;;;;;;5076024;28;20205;-63
2023/07/22 00:40:11;;;;;;;2.73;1.87;;;15.20;99.90;;;;;;5077647;28;20660;-63
2023/07/22 00:42:38;;;;;;;3.87;2.00;;;15.20;99.90;;;;;;5076435;28;20550;-63
2023/07/22 00:45:07;;;;;;;1.80;1.70;;;15.10;99.90;;;;;;5076854;28;20227;-63
2023/07/22 00:47:35;;;;;;;2.33;1.83;;;15.00;99.90;;;;;;5076760;28;20326;-63
2023/07/22 00:50:03;;;;;;;3.20;1.90;;;15.00;99.90;;;;;;5077593;28;20200;-63
2023/07/22 00:52:30;;;;;;;3.30;2.00;;;14.90;99.90;;;;;;5077400;28;20633;-62
2023/07/22 00:54:57;;;;;;;2.10;1.90;;;14.70;99.90;;;;;;5075158;28;20274;-63
2023/07/22 00:57:24;;;;;;;4.07;2.00;;;14.70;99.90;;;;;;5075146;28;20676;-63
2023/07/22 00:59:50;;;;;;;2.67;1.83;;;14.80;99.90;;;;;;5075616;28;20212;-62
2023/07/22 01:02:19;;;;;;;2.83;2.10;;;14.80;99.90;;;;;;5075472;28;20243;-63
2023/07/22 01:04:46;;;;;;;4.40;2.07;;;14.70;99.90;;;;;;5075513;28;20221;-63
2023/07/22 01:07:14;;;;;;;3.47;2.47;;;14.70;99.90;;;;;;5074835;28;20308;-63
2023/07/22 01:09:42;;;;;;;3.27;2.10;;;14.60;99.90;;;;;;5075154;28;20232;-64
2023/07/22 01:12:10;;;;;;;4.83;2.17;;;14.80;99.90;;;;;;5075508;28;20205;-64
2023/07/22 01:14:40;;;;;;;2.77;2.17;;;14.90;99.90;;;;;;5075276;28;20259;-63
2023/07/22 01:17:07;;;;;;;2.97;2.10;;;14.90;99.90;;;;;;5075586;28;20672;-62
2023/07/22 01:19:36;;;;;;;2.27;2.07;;;15.00;99.90;;;;;;5076305;28;20603;-63
2023/07/22 01:22:05;;;;;;;3.43;2.77;;;15.00;99.90;;;;;;5076398;28;20209;-63
2023/07/22 01:24:33;;;;;;;2.57;1.90;;;15.00;99.90;;;;;;5076988;28;20228;-63
2023/07/22 01:27:00;;;;;;;3.70;2.07;;;15.00;99.90;;;;;;5075127;28;20213;-63
2023/07/22 01:29:27;;;;;;;4.00;2.63;;;15.00;99.90;;;;;;5075181;28;20291;-63
2023/07/22 01:31:55;;;;;;;3.03;1.80;;;15.00;99.90;;;;;;5075233;28;20644;-63
2023/07/22 01:34:24;;;;;;;4.10;1.90;;;14.90;99.90;;;;;;5076324;28;20243;-63
2023/07/22 01:36:51;;;;;;;1.97;1.73;;;14.80;99.90;;;;;;5074215;28;20240;-62
2023/07/22 01:39:19;;;;;;;3.23;2.10;;;14.80;99.90;;;;;;5075238;28;20204;-63
2023/07/22 01:41:47;;;;;;;3.60;1.93;;;14.80;99.90;;;;;;5075247;28;20205;-62
2023/07/22 01:44:14;;;;;;;4.00;1.97;;;14.80;99.90;;;;;;5075481;28;20288;-63
2023/07/22 01:46:41;;;;;;;2.30;2.03;;;14.80;99.90;;;;;;5074801;28;20583;-63
2023/07/22 01:49:12;;;;;;;3.80;2.30;;;14.80;99.90;;;;;;5074929;28;20205;-62
2023/07/22 01:51:40;;;;;;;3.50;1.90;;;14.70;99.90;;;;;;5074772;28;20204;-62
2023/07/22 01:54:08;;;;;;;3.17;1.87;;;14.70;99.90;;;;;;5075159;28;20208;-62
2023/07/22 01:56:35;;;;;;;2.87;1.87;;;14.60;99.90;;;;;;5074936;28;20540;-63
2023/07/22 01:59:04;;;;;;;2.60;2.00;;;14.50;99.90;;;;;;5076571;28;20204;-64
2023/07/22 02:01:30;;;;;;;2.40;1.80;;;14.50;99.90;;;;;;5075634;28;20201;-63
2023/07/22 02:03:57;;;;;;;3.80;2.07;;;14.40;99.90;;;;;;5075547;28;20209;-62
2023/07/22 02:06:24;;;;;;;6.03;1.90;;;14.30;99.90;;;;;;5074798;28;20208;-61
2023/07/22 02:08:51;;;;;;;3.07;2.00;;;14.10;99.90;;;;;;5074399;28;20544;-64
2023/07/22 02:11:18;;;;;;;3.50;2.10;;;14.00;99.90;;;;;;5074685;28;20711;-64
2023/07/22 02:13:45;;;;;;;2.33;2.10;;;14.00;99.90;;;;;;5074809;28;20231;-65
2023/07/22 02:16:13;;;;;;;2.93;1.90;;;14.00;99.90;;;;;;5074129;28;20264;-63
2023/07/22 02:18:40;;;;;;;2.20;2.00;;;14.00;99.90;;;;;;5073321;28;20201;-63
2023/07/22 02:21:07;;;;;;;3.53;2.00;;;14.00;99.90;;;;;;5074652;28;20209;-63
2023/07/22 02:23:33;;;;;;;2.70;2.20;;;14.00;99.90;;;;;;5075609;28;20591;-63
2023/07/22 02:26:00;;;;;;;3.93;2.00;;;14.00;99.90;;;;;;5074768;28;20237;-63
2023/07/22 02:28:27;;;;;;;2.37;1.90;;;13.90;99.90;;;;;;5075558;28;20204;-63
2023/07/22 02:30:54;;;;;;;3.40;2.30;;;13.90;99.90;;;;;;5075558;28;20251;-63
2023/07/22 02:33:22;;;;;;;3.23;2.30;;;13.80;99.90;;;;;;5078432;28;20562;-63
2023/07/22 02:35:49;;;;;;;2.63;2.03;;;13.80;99.90;;;;;;5079486;28;20228;-63
2023/07/22 02:38:16;;;;;;;2.47;2.07;;;13.80;99.90;;;;;;5080364;28;20220;-64
2023/07/22 02:40:43;;;;;;;2.80;2.13;;;13.80;99.90;;;;;;5081985;28;20670;-62
2023/07/22 02:43:09;;;;;;;2.20;2.00;;;13.90;99.90;;;;;;5083534;28;20209;-63
2023/07/22 02:45:38;;;;;;;2.70;2.00;;;13.90;99.90;;;;;;5081723;28;20696;-63
2023/07/22 02:48:05;;;;;;;3.40;2.10;;;14.00;99.90;;;;;;5081793;28;20277;-61
2023/07/22 02:50:33;;;;;;;3.87;2.10;;;13.90;99.90;;;;;;5081584;28;20208;-63
2023/07/22 02:53:00;;;;;;;2.83;1.90;;;13.90;99.90;;;;;;5082165;28;20292;-63
2023/07/22 02:55:28;;;;;;;2.77;2.13;;;14.00;99.90;;;;;;5080992;28;20689;-63
2023/07/22 02:57:54;;;;;;;2.40;2.00;;;13.90;99.90;;;;;;5080018;28;20296;-63
2023/07/22 03:00:24;;;;;;;4.03;2.13;;;13.90;99.90;;;;;;5078522;28;20263;-63
2023/07/22 03:02:52;;;;;;;2.63;1.90;;;13.90;99.90;;;;;;5076851;28;20738;-63
2023/07/22 03:05:19;;;;;;;3.87;2.20;;;13.90;99.90;;;;;;5076913;28;20220;-64
2023/07/22 03:07:47;;;;;;;6.27;2.10;;;13.80;99.90;;;;;;5077428;28;20205;-63
2023/07/22 03:10:13;;;;;;;3.03;2.03;;;13.70;99.90;;;;;;5077273;28;20738;-61
2023/07/22 03:12:40;;;;;;;2.63;1.90;;;13.80;99.90;;;;;;5077338;28;20232;-63
2023/07/22 03:15:08;;;;;;;2.47;2.00;;;13.80;99.90;;;;;;5077163;28;20232;-63
2023/07/22 03:17:35;;;;;;;2.67;2.13;;;13.80;99.90;;;;;;5077492;28;20288;-63
2023/07/22 03:20:02;;;;;;;3.57;2.10;;;13.70;99.90;;;;;;5076780;28;20584;-63
2023/07/22 03:22:29;;;;;;;2.90;1.90;;;13.70;99.90;;;;;;5076453;28;20201;-63
2023/07/22 03:24:57;;;;;;;3.77;2.10;;;13.60;99.90;;;;;;5077413;28;20256;-62
2023/07/22 03:27:24;;;;;;;2.67;1.90;;;13.60;99.90;;;;;;5076563;28;20299;-62
2023/07/22 03:29:50;;;;;;;4.93;1.97;;;13.50;99.90;;;;;;5076736;28;20212;-62
2023/07/22 03:32:17;;;;;;;3.70;2.10;;;13.50;99.90;;;;;;5077440;28;20610;-62
2023/07/22 03:34:44;;;;;;;3.83;2.17;;;13.60;99.90;;;;;;5078237;28;20614;-62
2023/07/22 03:37:11;;;;;;;5.60;2.00;;;13.60;99.90;;;;;;5078221;28;20258;-62
2023/07/22 03:39:37;;;;;;;2.70;2.40;;;13.60;99.90;;;;;;5077604;28;20204;-64
2023/07/22 03:42:06;;;;;;;3.53;2.10;;;13.60;99.90;;;;;;5075688;28;20213;-64
2023/07/22 03:44:33;;;;;;;3.93;2.60;;;13.60;99.90;;;;;;5076153;28;20225;-65
2023/07/22 03:47:01;;;;;;;2.37;2.00;;;13.50;99.90;;;;;;5076961;28;20304;-64
2023/07/22 03:49:27;;;;;;;3.43;2.40;;;13.40;99.90;;;;;;5077537;28;20237;-63
2023/07/22 03:51:54;;;;;;;3.87;2.03;;;13.40;99.90;;;;;;5076525;28;20212;-63
2023/07/22 03:54:21;;;;;;;2.23;1.97;;;13.50;99.90;;;;;;5077104;28;20225;-63
2023/07/22 03:56:47;;;;;;;3.03;2.00;;;13.40;99.90;;;;;;5076652;28;20232;-63
2023/07/22 03:59:15;;;;;;;4.67;2.20;;;13.40;99.90;;;;;;5077848;28;20220;-63
2023/07/22 04:01:43;;;;;;;2.83;2.10;;;13.40;99.90;;;;;;5077623;28;20205;-62
2023/07/22 04:04:09;;;;;;;2.87;2.10;;;13.40;99.90;;;;;;5077226;28;20607;-64
2023/07/22 04:06:36;;;;;;;3.20;2.17;;;13.50;99.90;;;;;;5077023;28;20561;-64
2023/07/22 04:09:03;;;;;;;2.27;2.07;;;13.60;99.90;;;;;;5075983;28;20232;-64
2023/07/22 04:11:30;;;;;;;2.70;2.10;;;13.70;99.90;;;;;;5076514;28;20237;-63
2023/07/22 04:13:56;;;;;;;4.10;2.30;;;13.80;99.90;;;;;;5076248;28;20208;-63
2023/07/22 04:16:24;;;;;;;2.77;2.10;;;13.80;99.90;;;;;;5076549;28;20276;-63
2023/07/22 04:18:51;;;;;;;2.57;2.00;;;13.90;99.90;;;;;;5075804;28;20205;-63
2023/07/22 04:21:18;;;;;;;2.40;2.10;;;14.00;99.90;;;;;;5075244;28;20209;-64
2023/07/22 04:23:44;;;;;;;2.10;1.90;;;14.00;99.90;;;;;;5075434;28;20637;-63
2023/07/22 04:26:11;;;;;;;3.20;2.30;;;14.00;99.90;;;;;;5073115;28;20229;-59
2023/07/22 04:28:38;;;;;;;3.80;2.00;;;14.10;99.90;;;;;;5072217;28;20287;-60
2023/07/22 04:31:05;;;;;;;4.20;2.20;;;14.10;99.90;;;;;;5072203;28;20228;-60
2023/07/22 04:33:33;;;;;;;2.73;2.20;;;14.20;99.90;;;;;;5072039;28;20672;-60
2023/07/22 04:36:00;;;;;;;2.53;2.07;;;14.30;99.90;;;;;;5071581;28;20228;-57
2023/07/22 04:38:28;;;;;;;2.37;1.93;;;14.40;99.90;;;;;;5071862;28;20258;-57
2023/07/22 04:40:54;;;;;;;2.90;2.20;;;14.60;99.90;;;;;;5071793;28;20299;-55
2023/07/22 04:43:21;;;;;;;2.60;2.20;;;14.70;99.90;;;;;;5071838;28;20208;-55
2023/07/22 04:45:48;;;;;;;2.83;2.20;;;14.80;99.90;;;;;;5071697;28;20225;-56
2023/07/22 04:48:15;;;;;;;3.13;2.50;;;14.90;99.90;;;;;;5072062;28;20308;-56
2023/07/22 04:50:45;;;;;;;3.30;2.23;;;15.00;99.90;;;;;;5071873;28;20208;-56
2023/07/22 04:53:13;;;;;;;2.20;2.00;;;15.10;99.90;;;;;;5071809;28;20201;-56
2023/07/22 04:55:40;;;;;;;3.90;2.23;;;15.10;99.90;;;;;;5071958;28;20232;-60
2023/07/22 04:58:07;;;;;;;3.50;2.00;;;15.20;99.90;;;;;;5071972;28;20205;-56
2023/07/22 05:00:33;;;;;;;4.53;1.90;;;15.40;99.90;;;;;;5071985;28;20232;-59
2023/07/22 05:03:00;;;;;;;2.90;1.93;;;15.60;99.90;;;;;;5071261;28;20320;-60
2023/07/22 05:05:27;;;;;;;5.07;2.03;;;15.60;99.90;;;;;;5071689;28;20312;-58
2023/07/22 05:07:55;;;;;;;2.77;2.10;;;15.70;99.90;;;;;;5071315;28;20209;-58
2023/07/22 05:10:22;;;;;;;3.47;2.30;;;15.80;99.90;;;;;;5071756;28;20201;-58
2023/07/22 05:12:48;;;;;;;2.67;2.27;;;15.80;99.90;;;;;;5071757;28;20212;-58
2023/07/22 05:15:16;;;;;;;2.00;1.80;;;15.90;99.90;;;;;;5071484;28;20700;-58
2023/07/22 05:17:42;;;;;;;2.20;2.00;;;16.00;99.90;;;;;;5071328;28;20262;-60
2023/07/22 05:20:10;;;;;;;2.50;2.00;;;16.20;99.90;;;;;;5071464;28;20330;-60
2023/07/22 05:22:37;;;;;;;3.27;2.53;;;16.40;99.90;;;;;;5071378;28;20204;-59
2023/07/22 05:25:07;;;;;;;2.67;2.00;;;16.60;99.90;;;;;;5071301;28;20233;-62
2023/07/22 05:27:34;;;;;;;4.18;2.40;;;16.80;99.90;;;;;;5071454;28;20302;-59
2023/07/22 05:30:01;;;;;;;2.67;2.20;;;16.90;99.90;;;;;;5071991;28;20236;-60
2023/07/22 05:32:29;;;;;;;2.33;2.10;;;17.10;99.90;;;;;;5072823;28;20219;-59
2023/07/22 05:34:57;;;;;;;4.65;2.05;;;17.20;99.90;;;;;;5072912;28;20232;-58
2023/07/22 05:37:24;;;;;;;3.53;2.05;;;17.30;99.90;;;;;;5072231;28;20231;-58
2023/07/22 05:39:50;;;;;;;3.65;1.80;;;17.90;99.90;;;;;;5071705;28;20204;-59
2023/07/22 05:42:19;;;;;;;2.70;1.88;;;19.00;99.90;;;;;;5071326;28;20209;-62
2023/07/22 05:44:46;;;;;;;3.53;1.80;;;20.30;99.90;;;;;;5071067;28;20755;-60
2023/07/22 05:47:13;;;;;;;3.38;1.95;;;21.50;99.90;;;;;;5071033;28;20227;-59
2023/07/22 05:49:39;;;;;;;1.98;1.65;;;22.70;99.90;;;;;;5071050;28;20201;-60
2023/07/22 05:52:07;;;;;;;1.80;1.70;;;23.80;99.90;;;;;;5071319;28;20300;-59
2023/07/22 05:54:33;;;;;;;3.38;2.10;;;24.70;99.90;;;;;;5071157;28;20224;-59
2023/07/22 05:57:00;;;;;;;3.53;1.70;;;25.50;99.90;;;;;;5070771;28;20621;-59
2023/07/22 05:59:29;;;;;;;3.00;1.88;;;26.00;99.90;;;;;;5071070;28;20216;-59
2023/07/22 06:01:56;;;;;;;2.15;1.83;;;26.60;99.90;;;;;;5070966;28;20559;-60
2023/07/22 06:04:23;;;;;;;2.13;1.50;;;27.30;99.90;;;;;;5070767;28;20598;-58
2023/07/22 06:06:49;;;;;;;3.70;1.83;;;28.10;97.50;;;;;;5071043;28;20197;-61
2023/07/22 06:09:16;;;;;;;1.95;1.65;;;28.60;95.20;;;;;;5071030;28;20212;-60
2023/07/22 06:11:43;;;;;;;2.53;1.60;;;29.10;93.40;;;;;;5070952;28;20212;-58
2023/07/22 06:14:10;;;;;;;1.92;1.63;;;29.50;91.50;;;;;;5072289;28;20232;-60
2023/07/22 06:16:38;;;;;;;4.63;1.88;;;29.90;90.00;;;;;;5074425;28;20232;-59
2023/07/22 06:19:05;;;;;;;1.95;1.75;;;30.30;87.40;;;;;;5074882;28;20262;-59
2023/07/22 06:21:31;;;;;;;2.72;1.83;;;31.00;84.30;;;;;;5074539;28;20470;-58
2023/07/22 06:23:58;;;;;;;1.55;1.45;;;31.50;79.60;;;;;;5074619;28;20205;-58
2023/07/22 06:26:25;;;;;;;3.67;1.70;;;31.70;77.60;;;;;;5074854;28;20216;-60
2023/07/22 06:28:51;;;;;;;3.67;1.88;;;31.80;77.30;;;;;;5074743;28;20205;-60
2023/07/22 06:31:18;;;;;;;2.00;1.80;;;32.10;74.90;;;;;;5074295;28;20209;-62
2023/07/22 06:33:46;;;;;;;1.75;1.50;;;32.50;73.60;;;;;;5074570;28;20232;-60
2023/07/22 06:36:13;;;;;;;1.85;1.55;;;33.10;70.60;;;;;;5074233;28;20241;-60
2023/07/22 06:38:40;;;;;;;4.18;1.90;;;33.90;67.50;;;;;;5074439;28;20208;-58
2023/07/22 06:41:07;;;;;;;4.32;1.60;;;34.70;65.30;;;;;;5074328;28;20299;-61
2023/07/22 06:43:33;;;;;;;2.00;1.75;;;35.40;62.30;;;;;;5074218;28;20209;-61
2023/07/22 06:46:00;;;;;;;4.88;3.40;;;36.00;59.50;;;;;;5073808;28;20236;-60
2023/07/22 06:48:27;;;;;;;2.88;1.80;;;36.20;57.40;;;;;;5074460;28;20267;-61
2023/07/22 06:50:55;;;;;;;3.40;1.40;;;36.30;56.60;;;;;;5074270;28;20205;-61
2023/07/22 06:53:22;;;;;;;2.25;1.70;;;36.70;55.40;;;;;;5074131;28;20205;-60
2023/07/22 06:55:52;;;;;;;2.40;1.90;;;36.90;54.30;;;;;;5073556;28;20713;-61
2023/07/22 06:58:19;;;;;;;7.80;3.38;;;37.20;52.90;;;;;;5073892;28;20236;-62
2023/07/22 07:00:45;;;;;;;2.20;1.42;;;37.60;51.60;;;;;;5073961;28;20213;-61
2023/07/22 07:03:12;;;;;;;2.00;1.70;;;38.00;50.50;;;;;;5073855;28;20661;-61
2023/07/22 07:05:41;;;;;;;2.17;1.60;;;38.60;49.50;;;;;;5073849;28;20237;-61
2023/07/22 07:08:10;;;;;;;3.88;1.77;;;39.20;48.10;;;;;;5073648;28;20287;-60
2023/07/22 07:10:40;;;;;;;1.77;1.42;;;39.50;46.70;;;;;;5073730;28;20303;-60
2023/07/22 07:13:07;;;;;;;1.42;1.30;;;39.80;46.20;;;;;;5073510;28;20254;-59
2023/07/22 07:15:33;;;;;;;4.03;3.15;;;40.10;45.60;;;;;;5073664;28;20285;-61
2023/07/22 07:18:00;;;;;;;3.40;1.70;;;40.40;45.20;;;;;;5073388;28;20231;-61
2023/07/22 07:20:27;;;;;;;2.65;1.50;;;40.60;44.00;;;;;;5073693;28;20208;-60
2023/07/22 07:22:53;;;;;;;2.90;1.60;;;40.40;43.80;;;;;;5073886;28;20204;-60
2023/07/22 07:25:21;;;;;;;1.90;1.50;;;40.30;43.60;;;;;;5072614;28;20658;-61
2023/07/22 07:27:48;;;;;;;2.78;1.50;;;40.40;43.70;;;;;;5073097;28;20660;-61
2023/07/22 07:30:15;;;;;;;1.58;1.42;;;40.50;43.50;;;;;;5073470;28;20211;-61
2023/07/22 07:32:42;;;;;;;2.67;1.60;;;40.90;42.70;;;;;;5073327;28;20240;-60
2023/07/22 07:35:10;;;;;;;2.55;1.77;;;41.00;42.60;;;;;;5073184;28;20224;-61
2023/07/22 07:37:36;;;;;;;4.13;1.48;;;41.30;41.90;;;;;;5072485;28;20259;-59
2023/07/22 07:40:04;;;;;;;1.92;1.63;;;41.30;41.60;;;;;;5072977;28;20572;-61
2023/07/22 07:42:32;;;;;;;3.67;1.70;;;41.10;41.70;;;;;;5073027;28;20586;-61
2023/07/22 07:44:58;;;;;;;1.83;1.63;;;40.50;42.00;;;;;;5073075;28;20228;-61
2023/07/22 07:47:25;;;;;;;3.03;1.27;;;40.70;41.40;;;;;;5072823;28;20226;-61
2023/07/22 07:49:52;;;;;;;1.58;1.40;;;40.90;41.40;;;;;;5073207;28;20204;-62
2023/07/22 07:52:19;;;;;;;1.70;1.40;;;41.00;41.10;;;;;;5072894;28;20212;-60
2023/07/22 07:54:45;;;;;;;3.33;1.90;;;41.30;41.00;;;;;;5072890;28;20220;-60
2023/07/22 07:57:12;;;;;;;2.30;1.60;;;41.50;40.20;;;;;;5072816;28;20224;-60
2023/07/22 07:59:40;;;;;;;2.50;1.30;;;40.90;41.10;;;;;;5072928;28;20211;-60
2023/07/22 08:02:09;;;;;;;2.97;1.73;;;40.90;41.30;;;;;;5072776;28;20280;-60
2023/07/22 08:04:36;;;;;;;1.90;1.30;;;41.20;40.60;;;;;;5072742;28;20230;-61
2023/07/22 08:07:04;;;;;;;1.60;1.42;;;41.20;40.20;;;;;;5072776;28;20211;-61
2023/07/22 08:09:31;;;;;;;3.65;1.75;;;40.20;41.10;;;;;;5072772;28;20205;-62
2023/07/22 08:11:57;;;;;;;3.33;1.67;;;37.60;44.00;;;;;;5073556;28;20204;-61
2023/07/22 08:14:24;;;;;;;2.65;1.75;;;35.10;47.80;;;;;;5073830;28;20225;-60
2023/07/22 08:16:52;;;;;;;2.08;1.88;;;33.60;50.50;;;;;;5072717;28;20228;-62
2023/07/22 08:19:19;;;;;;;2.85;1.83;;;33.30;50.70;;;;;;5072707;28;20288;-61
2023/07/22 08:21:46;;;;;;;4.25;1.73;;;33.90;50.20;;;;;;5073206;28;20282;-59
2023/07/22 08:24:13;;;;;;;1.90;1.58;;;34.70;49.50;;;;;;5072373;28;20248;-60
2023/07/22 08:26:40;;;;;;;3.03;1.77;;;35.90;47.50;;;;;;5071864;28;20204;-60
2023/07/22 08:29:06;;;;;;;4.30;3.60;;;36.90;47.00;;;;;;5072144;28;20263;-61
2023/07/22 08:31:33;;;;;;;2.75;1.60;;;37.70;44.80;;;;;;5072303;28;20223;-60
2023/07/22 08:34:01;;;;;;;3.75;1.55;;;38.50;43.50;;;;;;5071904;28;20219;-61
2023/07/22 08:36:28;;;;;;;2.40;1.60;;;39.20;42.80;;;;;;5071512;28;20216;-60
2023/07/22 08:38:57;;;;;;;3.10;1.63;;;39.80;42.30;;;;;;5071237;28;20311;-60
2023/07/22 08:41:25;;;;;;;4.78;1.80;;;40.20;41.50;;;;;;5072089;28;20211;-62
2023/07/22 08:43:52;;;;;;;2.15;1.60;;;40.30;41.70;;;;;;5072021;28;20575;-62
2023/07/22 08:46:21;;;;;;;3.05;1.58;;;40.10;40.90;;;;;;5071629;28;20235;-61
2023/07/22 08:48:49;;;;;;;3.10;1.30;;;39.30;41.90;;;;;;5071804;28;20209;-61
2023/07/22 08:51:19;;;;;;;2.75;1.80;;;38.70;42.80;;;;;;5071938;28;20204;-60
2023/07/22 08:53:46;;;;;;;2.55;1.85;;;37.70;43.60;;;;;;5071819;28;20205;-61
2023/07/22 08:56:13;;;;;;;2.40;1.42;;;36.70;44.60;;;;;;5071637;28;20237;-61
2023/07/22 08:58:42;;;;;;;2.75;1.63;;;35.40;46.50;;;;;;5071799;28;20578;-62
2023/07/22 09:01:09;;;;;;;2.67;1.70;;;34.30;48.20;;;;;;5071709;28;20209;-62
2023/07/22 09:03:37;;;;;;;3.22;1.60;;;32.90;49.40;;;;;;5072322;28;20209;-62
2023/07/22 09:06:05;;;;;;;2.25;1.55;;;32.10;50.70;;;;;;5072209;28;20228;-62
2023/07/22 09:08:34;;;;;;;1.90;1.52;;;31.70;51.90;;;;;;5072195;28;20288;-62
2023/07/22 09:11:02;;;;;;;3.85;1.58;;;31.30;53.20;;;;;;5071739;28;20213;-60
2023/07/22 09:13:29;;;;;;;2.35;1.80;;;31.10;53.00;;;;;;5071745;28;20258;-61
2023/07/22 09:15:58;;;;;;;1.80;1.48;;;30.90;53.00;;;;;;5070855;28;20232;-60
2023/07/22 09:18:25;;;;;;;2.63;1.70;;;30.90;52.70;;;;;;5071410;28;20260;-61
2023/07/22 09:20:52;;;;;;;2.50;1.58;;;30.90;53.40;;;;;;5071431;28;20216;-60
2023/07/22 09:23:18;;;;;;;2.22;1.75;;;30.50;54.60;;;;;;5071304;28;20212;-61
2023/07/22 09:25:46;;;;;;;1.67;1.50;;;29.90;55.90;;;;;;5070913;28;20723;-61
2023/07/22 09:28:13;;;;;;;4.10;1.60;;;29.20;57.00;;;;;;5071727;28;20610;-60
2023/07/22 09:30:40;;;;;;;2.25;1.73;;;28.70;57.20;;;;;;5071407;28;20204;-60
2023/07/22 09:33:20;;;;;;;2.95;1.90;;;27.90;59.30;;;;;;5071306;28;20204;-61
2023/07/22 09:35:48;;;;;;;2.75;1.60;;;27.40;60.80;;;;;;5071195;28;20231;-61
2023/07/22 09:38:22;;;;;;;4.60;1.88;;;26.90;60.70;;;;;;5071412;28;20229;-60
2023/07/22 09:40:51;;;;;;;3.65;1.55;;;26.70;61.90;;;;;;5071342;28;20216;-60
2023/07/22 09:43:17;;;;;;;3.63;1.60;;;26.70;62.50;;;;;;5072429;28;20738;-60
2023/07/22 09:45:48;;;;;;;4.65;1.80;;;26.60;63.30;;;;;;5071323;28;20241;-59
2023/07/22 09:48:15;;;;;;;3.97;1.70;;;26.70;63.50;;;;;;5071950;28;20583;-61
2023/07/22 09:50:42;;;;;;;4.05;2.28;;;27.00;63.10;;;;;;5075965;28;20739;-61
2023/07/22 09:53:08;;;;;;;2.22;1.70;;;27.40;62.50;;;;;;5075569;28;20240;-61
2023/07/22 09:55:35;;;;;;;2.63;1.70;;;27.80;60.70;;;;;;5076824;28;20224;-60
2023/07/22 09:58:05;;;;;;;2.47;1.70;;;27.90;61.20;;;;;;5076028;28;20298;-60
2023/07/22 10:00:38;;;;;;;2.92;1.70;;;28.20;60.90;;;;;;5076392;28;20620;-61
2023/07/22 10:03:10;;;;;;;3.00;1.40;;;28.30;60.80;;;;;;5078196;28;20208;-64
2023/07/22 10:05:39;;;;;;;2.38;1.80;;;28.50;60.50;;;;;;5075490;28;20273;-63
2023/07/22 10:08:07;;;;;;;1.95;1.30;;;29.10;59.50;;;;;;5075381;28;20212;-65
2023/07/22 10:10:36;;;;;;;2.60;1.52;;;29.50;57.40;;;;;;5075083;28;20648;-65
2023/07/22 10:13:04;;;;;;;1.80;1.60;;;29.70;56.70;;;;;;5075030;28;20660;-64
2023/07/22 10:15:34;;;;;;;2.28;1.40;;;30.10;57.00;;;;;;5074873;28;20248;-63
2023/07/22 10:18:01;;;;;;;1.75;1.40;;;30.40;55.30;;;;;;5074634;28;20623;-64
2023/07/22 10:20:30;;;;;;;4.43;2.47;;;30.60;54.60;;;;;;5074648;28;20219;-64
2023/07/22 10:22:57;;;;;;;2.35;1.65;;;30.60;54.60;;;;;;5074970;28;20204;-64
2023/07/22 10:25:24;;;;;;;2.03;1.30;;;30.70;54.60;;;;;;5074992;28;20247;-61
2023/07/22 10:27:55;;;;;;;2.28;1.45;;;30.30;54.00;;;;;;5074929;28;20201;-64
2023/07/22 10:30:23;;;;;;;3.25;1.77;;;29.80;55.00;;;;;;5075137;28;20205;-63
2023/07/22 10:32:53;;;;;;;2.00;1.60;;;29.40;56.50;;;;;;5074368;28;20212;-64
2023/07/22 10:35:34;;;;;;;1.77;1.35;;;29.40;55.80;;;;;;5074386;28;20495;-64
2023/07/22 10:38:08;;;;;;;7.00;1.50;;;29.40;56.60;;;;;;5074185;28;20252;-65
2023/07/22 10:40:46;;;;;;;2.65;1.65;;;29.50;56.80;;;;;;5074549;28;20237;-64
2023/07/22 10:43:15;;;;;;;3.53;1.52;;;29.60;56.30;;;;;;5074409;28;20233;-64
2023/07/22 10:45:49;;;;;;;2.33;1.70;;;29.90;56.80;;;;;;5074644;28;20225;-64
2023/07/22 10:48:16;;;;;;;3.13;2.58;;;30.00;56.60;;;;;;5074808;28;20216;-65
2023/07/22 10:50:48;;;;;;;3.30;1.80;;;30.10;55.70;;;;;;5075126;28;20211;-65
2023/07/22 10:53:21;;;;;;;2.78;1.73;;;30.30;55.00;;;;;;5074482;28;20232;-64
2023/07/22 10:56:07;;;;;;;3.70;1.50;;;30.40;54.80;;;;;;5073706;28;20274;-65
2023/07/22 10:58:55;;;;;;;1.90;1.45;;;30.50;54.20;;;;;;5074083;28;20231;-64
2023/07/22 11:01:25;;;;;;;2.55;1.50;;;30.50;54.70;;;;;;5073647;28;20205;-64
2023/07/22 11:04:11;;;;;;;2.30;1.60;;;30.50;53.80;;;;;;5074302;28;20632;-64
2023/07/22 11:06:53;;;;;;;2.40;1.60;;;30.50;54.70;;;;;;5074879;28;20579;-66
2023/07/22 11:09:37;;;;;;;2.88;1.65;;;30.50;54.00;;;;;;5074799;28;20300;-66
2023/07/22 11:12:05;;;;;;;4.65;1.90;;;30.50;53.70;;;;;;5075167;28;20209;-66
2023/07/22 11:14:34;;;;;;;3.13;1.65;;;30.60;53.90;;;;;;5074132;28;20225;-65
2023/07/22 11:17:04;;;;;;;3.67;1.70;;;30.70;52.70;;;;;;5073994;28;20216;-65
2023/07/22 11:19:32;;;;;;;2.58;1.35;;;30.80;51.90;;;;;;5074264;28;20201;-64
2023/07/22 11:21:59;;;;;;;1.48;1.25;;;30.70;51.90;;;;;;5074134;28;20205;-67
2023/07/22 11:24:26;;;;;;;2.95;1.48;;;30.40;52.20;;;;;;5073588;28;20236;-65
2023/07/22 11:26:54;;;;;;;1.63;1.40;;;30.10;53.00;;;;;;5073730;28;20253;-65
2023/07/22 11:29:21;;;;;;;2.50;1.50;;;29.90;53.70;;;;;;5073784;28;20204;-65
2023/07/22 11:31:49;;;;;;;2.22;1.50;;;29.80;53.70;;;;;;5073863;28;20673;-64
2023/07/22 11:34:18;;;;;;;2.25;1.40;;;29.70;53.50;;;;;;5073655;28;20201;-65
2023/07/22 11:36:45;;;;;;;2.13;1.33;;;29.60;53.40;;;;;;5073403;28;20216;-66
2023/07/22 11:39:14;;;;;;;2.15;1.52;;;29.30;53.80;;;;;;5073163;28;20229;-65
2023/07/22 11:41:42;;;;;;;2.95;1.35;;;29.10;53.90;;;;;;5073498;28;20209;-66
2023/07/22 11:44:12;;;;;;;3.75;1.90;;;28.90;53.40;;;;;;5073246;28;20299;-65
2023/07/22 11:46:48;;;;;;;1.98;1.50;;;28.70;53.40;;;;;;5072941;28;20291;-66
2023/07/22 11:49:25;;;;;;;4.18;1.60;;;29.00;53.20;;;;;;5073368;28;20205;-66
2023/07/22 11:51:51;;;;;;;2.35;1.30;;;29.30;53.30;;;;;;5073237;28;20204;-65
2023/07/22 11:54:21;;;;;;;4.07;3.17;;;29.70;52.60;;;;;;5073485;28;20704;-64
2023/07/22 11:56:47;;;;;;;2.00;1.45;;;30.10;51.90;;;;;;5074281;28;20216;-64
2023/07/22 11:59:14;;;;;;;1.92;1.65;;;30.60;51.20;;;;;;5072937;28;20731;-64
2023/07/22 12:01:44;;;;;;;3.00;1.48;;;31.00;50.50;;;;;;5073340;28;20208;-65
2023/07/22 12:04:12;;;;;;;1.42;1.10;;;31.30;50.10;;;;;;5072822;28;20216;-66
2023/07/22 12:06:40;;;;;;;5.63;2.85;;;31.50;49.10;;;;;;5072580;28;20220;-66
2023/07/22 12:09:09;;;;;;;3.30;1.10;;;31.60;49.40;;;;;;5072887;28;20687;-64
2023/07/22 12:11:36;;;;;;;1.45;1.20;;;31.30;48.60;;;;;;5072964;28;20239;-65
2023/07/22 12:14:08;;;;;;;2.55;1.00;;;30.80;49.20;;;;;;5073094;28;20212;-64
2023/07/22 12:16:37;;;;;;;1.95;1.30;;;30.20;50.50;;;;;;5072590;28;20229;-64
2023/07/22 12:19:05;;;;;;;1.48;1.25;;;29.60;50.90;;;;;;5072395;28;20221;-63
2023/07/22 12:21:32;;;;;;;3.08;1.08;;;29.20;51.90;;;;;;5072362;28;20672;-65
2023/07/22 12:24:01;;;;;;;1.65;1.40;;;29.00;52.40;;;;;;5072571;28;20205;-64
2023/07/22 12:26:27;;;;;;;2.83;1.60;;;29.00;52.60;;;;;;5078296;22;20728;-62
2023/07/22 12:28:54;;;;;;;3.20;1.20;;;28.90;52.30;;;;;;5069659;28;20558;-60
2023/07/22 12:31:21;;;;;;;1.70;1.40;;;28.90;52.30;;;;;;5072193;28;20214;-61
2023/07/22 12:33:48;;;;;;;2.45;1.58;;;28.80;52.20;;;;;;5072112;28;20211;-62
2023/07/22 12:36:14;;;;;;;3.33;1.67;;;28.90;52.00;;;;;;5071757;28;20731;-62
2023/07/22 12:38:42;;;;;;;1.80;1.50;;;28.90;52.50;;;;;;5071820;28;20704;-62
2023/07/22 12:41:10;;;;;;;1.42;1.15;;;28.90;52.50;;;;;;5072117;28;20217;-62
2023/07/22 12:43:36;;;;;;;2.10;1.50;;;28.90;52.20;;;;;;5071931;28;20239;-62
2023/07/22 12:46:03;;;;;;;1.33;1.20;;;29.00;52.70;;;;;;5071617;28;20228;-62
2023/07/22 12:48:30;;;;;;;3.67;1.50;;;29.00;52.60;;;;;;5071672;28;20205;-61
2023/07/22 12:50:56;;;;;;;1.33;1.23;;;28.80;53.50;;;;;;5071825;28;20640;-60